sensor_id;sensor_type;location;lat;lon;timestamp;P1;durP1;ratioP1;P2;durP2;ratioP2
35518;SDS011;21627;48.216;16.482;2022-07-17T00:01:21;2.72;;;1.45;;
35518;SDS011;21627;48.216;16.482;2022-07-17T00:03:49;1.80;;;1.13;;
35518;SDS011;21627;48.216;16.482;2022-07-17T00:06:16;2.35;;;1.45;;
35518;SDS011;21627;48.216;16.482;2022-07-17T00:08:43;1.48;;;1.10;;
35518;SDS011;21627;48.216;16.482;2022-07-17T00:11:11;1.83;;;0.95;;
35518;SDS011;21627;48.216;16.482;2022-07-17T00:13:38;3.75;;;1.10;;
35518;SDS011;21627;48.216;16.482;2022-07-17T00:16:05;3.55;;;1.60;;
35518;SDS011;21627;48.216;16.482;2022-07-17T00:18:33;3.30;;;1.45;;
35518;SDS011;21627;48.216;16.482;2022-07-17T00:21:00;4.45;;;1.38;;
35518;SDS011;21627;48.216;16.482;2022-07-17T00:23:28;1.95;;;1.40;;
35518;SDS011;21627;48.216;16.482;2022-07-17T00:25:55;2.92;;;1.60;;
35518;SDS011;21627;48.216;16.482;2022-07-17T00:28:22;2.65;;;1.40;;
35518;SDS011;21627;48.216;16.482;2022-07-17T00:30:49;3.08;;;1.50;;
35518;SDS011;21627;48.216;16.482;2022-07-17T00:33:16;4.15;;;1.38;;
35518;SDS011;21627;48.216;16.482;2022-07-17T00:35:44;2.72;;;1.10;;
35518;SDS011;21627;48.216;16.482;2022-07-17T00:38:11;3.13;;;1.10;;
35518;SDS011;21627;48.216;16.482;2022-07-17T00:40:40;2.47;;;1.27;;
35518;SDS011;21627;48.216;16.482;2022-07-17T00:43:07;4.05;;;1.35;;
35518;SDS011;21627;48.216;16.482;2022-07-17T00:45:35;5.03;;;1.65;;
35518;SDS011;21627;48.216;16.482;2022-07-17T00:48:03;6.25;;;1.40;;
35518;SDS011;21627;48.216;16.482;2022-07-17T00:50:36;2.45;;;1.42;;
35518;SDS011;21627;48.216;16.482;2022-07-17T00:53:07;1.83;;;1.25;;
35518;SDS011;21627;48.216;16.482;2022-07-17T00:55:35;3.05;;;1.30;;
35518;SDS011;21627;48.216;16.482;2022-07-17T00:58:12;2.35;;;1.40;;
35518;SDS011;21627;48.216;16.482;2022-07-17T01:00:51;3.30;;;1.52;;
35518;SDS011;21627;48.216;16.482;2022-07-17T01:03:22;3.58;;;1.38;;
35518;SDS011;21627;48.216;16.482;2022-07-17T01:05:51;3.05;;;1.60;;
35518;SDS011;21627;48.216;16.482;2022-07-17T01:08:19;3.67;;;1.40;;
35518;SDS011;21627;48.216;16.482;2022-07-17T01:10:46;6.78;;;1.83;;
35518;SDS011;21627;48.216;16.482;2022-07-17T01:13:14;2.28;;;1.58;;
35518;SDS011;21627;48.216;16.482;2022-07-17T01:15:41;1.58;;;1.10;;
35518;SDS011;21627;48.216;16.482;2022-07-17T01:18:11;4.45;;;1.25;;
35518;SDS011;21627;48.216;16.482;2022-07-17T01:20:41;3.65;;;1.58;;
35518;SDS011;21627;48.216;16.482;2022-07-17T01:23:12;2.33;;;1.20;;
35518;SDS011;21627;48.216;16.482;2022-07-17T01:25:41;6.28;;;1.33;;
35518;SDS011;21627;48.216;16.482;2022-07-17T01:28:09;4.57;;;1.33;;
35518;SDS011;21627;48.216;16.482;2022-07-17T01:30:37;5.00;;;1.33;;
35518;SDS011;21627;48.216;16.482;2022-07-17T01:33:18;1.52;;;1.17;;
35518;SDS011;21627;48.216;16.482;2022-07-17T01:35:46;1.92;;;1.25;;
35518;SDS011;21627;48.216;16.482;2022-07-17T01:38:13;2.00;;;1.40;;
35518;SDS011;21627;48.216;16.482;2022-07-17T01:40:41;2.47;;;1.30;;
35518;SDS011;21627;48.216;16.482;2022-07-17T01:43:08;2.65;;;1.30;;
35518;SDS011;21627;48.216;16.482;2022-07-17T01:45:36;4.75;;;1.42;;
35518;SDS011;21627;48.216;16.482;2022-07-17T01:48:04;2.50;;;1.40;;
35518;SDS011;21627;48.216;16.482;2022-07-17T01:50:31;3.92;;;1.45;;
35518;SDS011;21627;48.216;16.482;2022-07-17T01:52:59;3.88;;;1.45;;
35518;SDS011;21627;48.216;16.482;2022-07-17T01:55:26;2.20;;;1.35;;
35518;SDS011;21627;48.216;16.482;2022-07-17T01:57:53;4.25;;;1.50;;
35518;SDS011;21627;48.216;16.482;2022-07-17T02:00:20;1.67;;;0.90;;
35518;SDS011;21627;48.216;16.482;2022-07-17T02:02:51;6.35;;;1.25;;
35518;SDS011;21627;48.216;16.482;2022-07-17T02:05:18;2.42;;;1.30;;
35518;SDS011;21627;48.216;16.482;2022-07-17T02:07:45;3.95;;;1.30;;
35518;SDS011;21627;48.216;16.482;2022-07-17T02:10:13;1.75;;;1.10;;
35518;SDS011;21627;48.216;16.482;2022-07-17T02:12:42;2.40;;;1.30;;
35518;SDS011;21627;48.216;16.482;2022-07-17T02:15:10;4.82;;;1.30;;
35518;SDS011;21627;48.216;16.482;2022-07-17T02:17:38;2.05;;;1.25;;
35518;SDS011;21627;48.216;16.482;2022-07-17T02:20:07;3.88;;;1.30;;
35518;SDS011;21627;48.216;16.482;2022-07-17T02:22:36;2.15;;;1.27;;
35518;SDS011;21627;48.216;16.482;2022-07-17T02:25:04;2.33;;;1.13;;
35518;SDS011;21627;48.216;16.482;2022-07-17T02:27:33;2.70;;;1.38;;
35518;SDS011;21627;48.216;16.482;2022-07-17T02:30:01;2.78;;;1.00;;
35518;SDS011;21627;48.216;16.482;2022-07-17T02:32:43;2.10;;;1.20;;
35518;SDS011;21627;48.216;16.482;2022-07-17T02:35:12;2.85;;;1.20;;
35518;SDS011;21627;48.216;16.482;2022-07-17T02:37:40;2.78;;;1.20;;
35518;SDS011;21627;48.216;16.482;2022-07-17T02:40:09;2.60;;;1.67;;
35518;SDS011;21627;48.216;16.482;2022-07-17T02:42:37;1.98;;;1.20;;
35518;SDS011;21627;48.216;16.482;2022-07-17T02:45:04;1.70;;;1.30;;
35518;SDS011;21627;48.216;16.482;2022-07-17T02:47:33;5.07;;;1.33;;
35518;SDS011;21627;48.216;16.482;2022-07-17T02:50:03;1.92;;;1.20;;
35518;SDS011;21627;48.216;16.482;2022-07-17T02:52:33;3.67;;;1.40;;
35518;SDS011;21627;48.216;16.482;2022-07-17T02:55:01;3.97;;;1.25;;
35518;SDS011;21627;48.216;16.482;2022-07-17T02:57:28;5.20;;;1.48;;
35518;SDS011;21627;48.216;16.482;2022-07-17T02:59:55;1.73;;;1.08;;
35518;SDS011;21627;48.216;16.482;2022-07-17T03:02:23;1.83;;;1.35;;
35518;SDS011;21627;48.216;16.482;2022-07-17T03:04:50;7.78;;;1.40;;
35518;SDS011;21627;48.216;16.482;2022-07-17T03:07:17;2.45;;;1.42;;
35518;SDS011;21627;48.216;16.482;2022-07-17T03:09:44;3.28;;;1.55;;
35518;SDS011;21627;48.216;16.482;2022-07-17T03:12:11;3.88;;;1.55;;
35518;SDS011;21627;48.216;16.482;2022-07-17T03:14:38;5.78;;;1.30;;
35518;SDS011;21627;48.216;16.482;2022-07-17T03:17:05;2.00;;;1.38;;
35518;SDS011;21627;48.216;16.482;2022-07-17T03:19:33;1.70;;;1.38;;
35518;SDS011;21627;48.216;16.482;2022-07-17T03:22:01;4.85;;;1.90;;
35518;SDS011;21627;48.216;16.482;2022-07-17T03:24:28;2.70;;;1.48;;
35518;SDS011;21627;48.216;16.482;2022-07-17T03:26:55;3.75;;;1.13;;
35518;SDS011;21627;48.216;16.482;2022-07-17T03:29:23;3.45;;;1.55;;
35518;SDS011;21627;48.216;16.482;2022-07-17T03:31:51;2.33;;;1.30;;
35518;SDS011;21627;48.216;16.482;2022-07-17T03:34:18;3.40;;;1.55;;
35518;SDS011;21627;48.216;16.482;2022-07-17T03:36:45;3.65;;;1.40;;
35518;SDS011;21627;48.216;16.482;2022-07-17T03:39:13;1.55;;;1.15;;
35518;SDS011;21627;48.216;16.482;2022-07-17T03:41:41;2.58;;;1.42;;
35518;SDS011;21627;48.216;16.482;2022-07-17T03:44:08;2.80;;;1.30;;
35518;SDS011;21627;48.216;16.482;2022-07-17T03:46:35;2.35;;;1.20;;
35518;SDS011;21627;48.216;16.482;2022-07-17T03:49:02;2.10;;;1.45;;
35518;SDS011;21627;48.216;16.482;2022-07-17T03:51:30;2.42;;;1.00;;
35518;SDS011;21627;48.216;16.482;2022-07-17T03:53:58;2.65;;;1.10;;
35518;SDS011;21627;48.216;16.482;2022-07-17T03:56:25;5.63;;;1.80;;
35518;SDS011;21627;48.216;16.482;2022-07-17T03:58:52;5.63;;;1.38;;
35518;SDS011;21627;48.216;16.482;2022-07-17T04:01:19;5.22;;;1.60;;
35518;SDS011;21627;48.216;16.482;2022-07-17T04:03:46;1.63;;;1.13;;
35518;SDS011;21627;48.216;16.482;2022-07-17T04:06:14;1.85;;;1.20;;
35518;SDS011;21627;48.216;16.482;2022-07-17T04:08:41;2.33;;;1.25;;
35518;SDS011;21627;48.216;16.482;2022-07-17T04:11:08;4.90;;;1.40;;
35518;SDS011;21627;48.216;16.482;2022-07-17T04:13:36;2.97;;;1.58;;
35518;SDS011;21627;48.216;16.482;2022-07-17T04:16:04;2.67;;;1.30;;
35518;SDS011;21627;48.216;16.482;2022-07-17T04:18:33;3.97;;;1.52;;
35518;SDS011;21627;48.216;16.482;2022-07-17T04:21:06;9.93;;;1.92;;
35518;SDS011;21627;48.216;16.482;2022-07-17T04:23:36;2.33;;;1.40;;
35518;SDS011;21627;48.216;16.482;2022-07-17T04:26:04;11.70;;;1.70;;
35518;SDS011;21627;48.216;16.482;2022-07-17T04:28:37;4.20;;;1.55;;
35518;SDS011;21627;48.216;16.482;2022-07-17T04:31:06;8.52;;;1.73;;
35518;SDS011;21627;48.216;16.482;2022-07-17T04:33:34;4.25;;;1.98;;
35518;SDS011;21627;48.216;16.482;2022-07-17T04:36:01;4.43;;;1.55;;
35518;SDS011;21627;48.216;16.482;2022-07-17T04:38:29;3.55;;;1.50;;
35518;SDS011;21627;48.216;16.482;2022-07-17T04:40:56;4.32;;;1.67;;
35518;SDS011;21627;48.216;16.482;2022-07-17T04:43:23;3.22;;;2.28;;
35518;SDS011;21627;48.216;16.482;2022-07-17T04:45:51;2.33;;;1.45;;
35518;SDS011;21627;48.216;16.482;2022-07-17T04:48:18;2.78;;;1.80;;
35518;SDS011;21627;48.216;16.482;2022-07-17T04:50:45;8.65;;;1.40;;
35518;SDS011;21627;48.216;16.482;2022-07-17T04:53:12;4.20;;;1.42;;
35518;SDS011;21627;48.216;16.482;2022-07-17T04:55:43;3.08;;;1.33;;
35518;SDS011;21627;48.216;16.482;2022-07-17T04:58:10;1.40;;;1.25;;
35518;SDS011;21627;48.216;16.482;2022-07-17T05:00:37;2.78;;;1.30;;
35518;SDS011;21627;48.216;16.482;2022-07-17T05:03:04;4.63;;;1.05;;
35518;SDS011;21627;48.216;16.482;2022-07-17T05:05:31;1.85;;;1.35;;
35518;SDS011;21627;48.216;16.482;2022-07-17T05:07:58;4.22;;;1.30;;
35518;SDS011;21627;48.216;16.482;2022-07-17T05:10:25;3.13;;;1.35;;
35518;SDS011;21627;48.216;16.482;2022-07-17T05:12:53;2.30;;;1.38;;
35518;SDS011;21627;48.216;16.482;2022-07-17T05:15:21;7.15;;;1.55;;
35518;SDS011;21627;48.216;16.482;2022-07-17T05:17:48;2.22;;;1.55;;
35518;SDS011;21627;48.216;16.482;2022-07-17T05:20:15;6.90;;;1.52;;
35518;SDS011;21627;48.216;16.482;2022-07-17T05:22:42;2.17;;;1.08;;
35518;SDS011;21627;48.216;16.482;2022-07-17T05:25:10;1.83;;;1.15;;
35518;SDS011;21627;48.216;16.482;2022-07-17T05:27:37;3.53;;;1.35;;
35518;SDS011;21627;48.216;16.482;2022-07-17T05:30:04;4.20;;;1.20;;
35518;SDS011;21627;48.216;16.482;2022-07-17T05:32:33;1.15;;;1.02;;
35518;SDS011;21627;48.216;16.482;2022-07-17T05:35:00;2.50;;;1.40;;
35518;SDS011;21627;48.216;16.482;2022-07-17T05:37:27;11.00;;;1.40;;
35518;SDS011;21627;48.216;16.482;2022-07-17T05:39:54;2.72;;;1.58;;
35518;SDS011;21627;48.216;16.482;2022-07-17T05:42:22;3.13;;;1.40;;
35518;SDS011;21627;48.216;16.482;2022-07-17T05:44:49;2.15;;;1.30;;
35518;SDS011;21627;48.216;16.482;2022-07-17T05:47:16;2.78;;;1.15;;
35518;SDS011;21627;48.216;16.482;2022-07-17T05:49:43;1.90;;;1.13;;
35518;SDS011;21627;48.216;16.482;2022-07-17T05:52:10;1.48;;;0.90;;
35518;SDS011;21627;48.216;16.482;2022-07-17T05:54:37;2.72;;;1.30;;
35518;SDS011;21627;48.216;16.482;2022-07-17T05:57:04;2.67;;;1.08;;
35518;SDS011;21627;48.216;16.482;2022-07-17T05:59:36;1.17;;;0.90;;
35518;SDS011;21627;48.216;16.482;2022-07-17T06:02:03;2.72;;;1.00;;
35518;SDS011;21627;48.216;16.482;2022-07-17T06:04:31;1.48;;;0.85;;
35518;SDS011;21627;48.216;16.482;2022-07-17T06:06:58;1.42;;;0.90;;
35518;SDS011;21627;48.216;16.482;2022-07-17T06:09:26;2.75;;;1.08;;
35518;SDS011;21627;48.216;16.482;2022-07-17T06:11:53;6.93;;;1.27;;
35518;SDS011;21627;48.216;16.482;2022-07-17T06:14:20;1.75;;;0.80;;
35518;SDS011;21627;48.216;16.482;2022-07-17T06:16:47;4.38;;;1.27;;
35518;SDS011;21627;48.216;16.482;2022-07-17T06:19:14;3.15;;;1.10;;
35518;SDS011;21627;48.216;16.482;2022-07-17T06:21:41;2.38;;;1.02;;
35518;SDS011;21627;48.216;16.482;2022-07-17T06:24:08;2.75;;;1.00;;
35518;SDS011;21627;48.216;16.482;2022-07-17T06:26:35;2.55;;;1.10;;
35518;SDS011;21627;48.216;16.482;2022-07-17T06:29:02;3.60;;;1.00;;
35518;SDS011;21627;48.216;16.482;2022-07-17T06:31:29;0.93;;;0.52;;
35518;SDS011;21627;48.216;16.482;2022-07-17T06:33:59;2.38;;;1.02;;
35518;SDS011;21627;48.216;16.482;2022-07-17T06:36:26;2.33;;;0.90;;
35518;SDS011;21627;48.216;16.482;2022-07-17T06:38:53;1.55;;;0.90;;
35518;SDS011;21627;48.216;16.482;2022-07-17T06:41:20;2.40;;;0.93;;
35518;SDS011;21627;48.216;16.482;2022-07-17T06:43:47;3.13;;;1.27;;
35518;SDS011;21627;48.216;16.482;2022-07-17T06:46:14;5.50;;;1.23;;
35518;SDS011;21627;48.216;16.482;2022-07-17T06:48:42;5.80;;;1.05;;
35518;SDS011;21627;48.216;16.482;2022-07-17T06:51:09;2.17;;;0.68;;
35518;SDS011;21627;48.216;16.482;2022-07-17T06:53:36;2.22;;;1.00;;
35518;SDS011;21627;48.216;16.482;2022-07-17T06:56:03;1.80;;;0.60;;
35518;SDS011;21627;48.216;16.482;2022-07-17T06:58:31;2.85;;;0.80;;
35518;SDS011;21627;48.216;16.482;2022-07-17T07:00:58;2.10;;;0.90;;
35518;SDS011;21627;48.216;16.482;2022-07-17T07:03:25;1.95;;;0.75;;
35518;SDS011;21627;48.216;16.482;2022-07-17T07:05:53;2.42;;;1.08;;
35518;SDS011;21627;48.216;16.482;2022-07-17T07:08:21;2.13;;;1.20;;
35518;SDS011;21627;48.216;16.482;2022-07-17T07:10:48;3.20;;;0.70;;
35518;SDS011;21627;48.216;16.482;2022-07-17T07:13:15;3.47;;;0.80;;
35518;SDS011;21627;48.216;16.482;2022-07-17T07:15:43;2.45;;;0.35;;
35518;SDS011;21627;48.216;16.482;2022-07-17T07:18:10;3.45;;;0.63;;
35518;SDS011;21627;48.216;16.482;2022-07-17T07:20:37;1.42;;;0.80;;
35518;SDS011;21627;48.216;16.482;2022-07-17T07:23:04;3.22;;;0.50;;
35518;SDS011;21627;48.216;16.482;2022-07-17T07:25:32;1.38;;;0.63;;
35518;SDS011;21627;48.216;16.482;2022-07-17T07:28:01;3.25;;;1.00;;
35518;SDS011;21627;48.216;16.482;2022-07-17T07:30:30;3.15;;;0.90;;
35518;SDS011;21627;48.216;16.482;2022-07-17T07:32:57;4.05;;;0.60;;
35518;SDS011;21627;48.216;16.482;2022-07-17T07:35:24;4.68;;;0.88;;
35518;SDS011;21627;48.216;16.482;2022-07-17T07:37:52;2.22;;;0.65;;
35518;SDS011;21627;48.216;16.482;2022-07-17T07:40:19;1.25;;;0.73;;
35518;SDS011;21627;48.216;16.482;2022-07-17T07:42:46;1.75;;;0.60;;
35518;SDS011;21627;48.216;16.482;2022-07-17T07:45:13;4.10;;;0.80;;
35518;SDS011;21627;48.216;16.482;2022-07-17T07:47:44;6.25;;;1.00;;
35518;SDS011;21627;48.216;16.482;2022-07-17T07:50:14;6.53;;;0.80;;
35518;SDS011;21627;48.216;16.482;2022-07-17T07:52:42;1.77;;;0.63;;
35518;SDS011;21627;48.216;16.482;2022-07-17T07:55:11;5.78;;;1.10;;
35518;SDS011;21627;48.216;16.482;2022-07-17T07:57:47;2.33;;;0.95;;
35518;SDS011;21627;48.216;16.482;2022-07-17T08:00:28;1.92;;;0.82;;
35518;SDS011;21627;48.216;16.482;2022-07-17T08:02:56;2.22;;;0.80;;
35518;SDS011;21627;48.216;16.482;2022-07-17T08:05:23;2.53;;;0.85;;
35518;SDS011;21627;48.216;16.482;2022-07-17T08:07:50;3.83;;;0.73;;
35518;SDS011;21627;48.216;16.482;2022-07-17T08:10:17;3.60;;;0.70;;
35518;SDS011;21627;48.216;16.482;2022-07-17T08:12:45;3.50;;;0.77;;
35518;SDS011;21627;48.216;16.482;2022-07-17T08:15:13;9.35;;;0.80;;
35518;SDS011;21627;48.216;16.482;2022-07-17T08:17:42;8.85;;;0.93;;
35518;SDS011;21627;48.216;16.482;2022-07-17T08:20:10;2.10;;;0.63;;
35518;SDS011;21627;48.216;16.482;2022-07-17T08:22:41;2.80;;;1.08;;
35518;SDS011;21627;48.216;16.482;2022-07-17T08:25:30;4.63;;;0.95;;
35518;SDS011;21627;48.216;16.482;2022-07-17T08:27:58;3.28;;;0.60;;
35518;SDS011;21627;48.216;16.482;2022-07-17T08:30:25;1.77;;;0.60;;
35518;SDS011;21627;48.216;16.482;2022-07-17T08:32:53;1.20;;;0.43;;
35518;SDS011;21627;48.216;16.482;2022-07-17T08:35:21;1.95;;;0.60;;
35518;SDS011;21627;48.216;16.482;2022-07-17T08:37:50;2.17;;;0.80;;
35518;SDS011;21627;48.216;16.482;2022-07-17T08:40:23;5.75;;;0.68;;
35518;SDS011;21627;48.216;16.482;2022-07-17T08:42:54;1.90;;;0.52;;
35518;SDS011;21627;48.216;16.482;2022-07-17T08:45:24;2.65;;;0.90;;
35518;SDS011;21627;48.216;16.482;2022-07-17T08:47:52;1.52;;;0.57;;
35518;SDS011;21627;48.216;16.482;2022-07-17T08:50:26;3.35;;;0.75;;
35518;SDS011;21627;48.216;16.482;2022-07-17T08:53:01;3.83;;;0.70;;
35518;SDS011;21627;48.216;16.482;2022-07-17T08:55:29;5.07;;;0.90;;
35518;SDS011;21627;48.216;16.482;2022-07-17T08:57:57;2.22;;;0.60;;
35518;SDS011;21627;48.216;16.482;2022-07-17T09:00:25;1.08;;;0.45;;
35518;SDS011;21627;48.216;16.482;2022-07-17T09:05:39;1.90;;;0.80;;
35518;SDS011;21627;48.216;16.482;2022-07-17T09:08:09;2.80;;;0.90;;
35518;SDS011;21627;48.216;16.482;2022-07-17T09:10:48;8.98;;;0.75;;
35518;SDS011;21627;48.216;16.482;2022-07-17T09:13:24;2.90;;;1.08;;
35518;SDS011;21627;48.216;16.482;2022-07-17T09:16:07;4.07;;;0.80;;
35518;SDS011;21627;48.216;16.482;2022-07-17T09:18:43;1.10;;;0.50;;
35518;SDS011;21627;48.216;16.482;2022-07-17T09:21:23;8.13;;;1.05;;
35518;SDS011;21627;48.216;16.482;2022-07-17T09:24:00;1.38;;;0.57;;
35518;SDS011;21627;48.216;16.482;2022-07-17T09:26:33;2.10;;;0.50;;
35518;SDS011;21627;48.216;16.482;2022-07-17T09:29:01;1.48;;;0.88;;
35518;SDS011;21627;48.216;16.482;2022-07-17T09:31:31;2.75;;;0.70;;
35518;SDS011;21627;48.216;16.482;2022-07-17T09:34:00;3.45;;;0.98;;
35518;SDS011;21627;48.216;16.482;2022-07-17T09:36:27;2.00;;;0.47;;
35518;SDS011;21627;48.216;16.482;2022-07-17T09:38:56;1.63;;;0.80;;
35518;SDS011;21627;48.216;16.482;2022-07-17T09:41:25;3.03;;;0.60;;
35518;SDS011;21627;48.216;16.482;2022-07-17T09:44:00;3.90;;;1.05;;
35518;SDS011;21627;48.216;16.482;2022-07-17T09:46:29;1.33;;;0.65;;
35518;SDS011;21627;48.216;16.482;2022-07-17T09:49:09;6.38;;;0.80;;
35518;SDS011;21627;48.216;16.482;2022-07-17T09:51:37;4.43;;;1.08;;
35518;SDS011;21627;48.216;16.482;2022-07-17T09:54:07;3.45;;;0.90;;
35518;SDS011;21627;48.216;16.482;2022-07-17T09:56:38;2.45;;;0.75;;
35518;SDS011;21627;48.216;16.482;2022-07-17T09:59:10;3.28;;;0.90;;
35518;SDS011;21627;48.216;16.482;2022-07-17T10:01:40;3.10;;;0.90;;
35518;SDS011;21627;48.216;16.482;2022-07-17T10:04:11;2.33;;;0.85;;
35518;SDS011;21627;48.216;16.482;2022-07-17T10:06:39;1.45;;;0.63;;
35518;SDS011;21627;48.216;16.482;2022-07-17T10:09:06;4.30;;;0.80;;
35518;SDS011;21627;48.216;16.482;2022-07-17T10:11:35;2.78;;;0.77;;
35518;SDS011;21627;48.216;16.482;2022-07-17T10:14:13;2.08;;;0.70;;
35518;SDS011;21627;48.216;16.482;2022-07-17T10:16:42;4.10;;;0.80;;
35518;SDS011;21627;48.216;16.482;2022-07-17T10:19:19;4.63;;;0.98;;
35518;SDS011;21627;48.216;16.482;2022-07-17T10:21:52;9.98;;;0.90;;
35518;SDS011;21627;48.216;16.482;2022-07-17T10:24:30;1.75;;;0.47;;
35518;SDS011;21627;48.216;16.482;2022-07-17T10:26:59;2.20;;;0.85;;
35518;SDS011;21627;48.216;16.482;2022-07-17T10:29:37;2.22;;;0.70;;
35518;SDS011;21627;48.216;16.482;2022-07-17T10:32:17;1.65;;;0.80;;
35518;SDS011;21627;48.216;16.482;2022-07-17T10:34:46;1.17;;;0.60;;
35518;SDS011;21627;48.216;16.482;2022-07-17T10:40:03;5.13;;;0.60;;
35518;SDS011;21627;48.216;16.482;2022-07-17T10:42:38;4.32;;;0.80;;
35518;SDS011;21627;48.216;16.482;2022-07-17T10:45:20;2.65;;;0.52;;
35518;SDS011;21627;48.216;16.482;2022-07-17T10:47:56;3.20;;;0.90;;
35518;SDS011;21627;48.216;16.482;2022-07-17T10:50:26;1.70;;;0.77;;
35518;SDS011;21627;48.216;16.482;2022-07-17T10:53:04;2.42;;;0.98;;
35518;SDS011;21627;48.216;16.482;2022-07-17T10:55:55;3.47;;;0.88;;
35518;SDS011;21627;48.216;16.482;2022-07-17T10:58:36;3.72;;;0.77;;
35518;SDS011;21627;48.216;16.482;2022-07-17T11:01:14;2.25;;;0.57;;
35518;SDS011;21627;48.216;16.482;2022-07-17T11:03:47;1.65;;;0.70;;
35518;SDS011;21627;48.216;16.482;2022-07-17T11:06:19;2.78;;;0.68;;
35518;SDS011;21627;48.216;16.482;2022-07-17T11:11:39;2.28;;;0.70;;
35518;SDS011;21627;48.216;16.482;2022-07-17T11:21:53;2.15;;;0.98;;
35518;SDS011;21627;48.216;16.482;2022-07-17T11:24:23;2.60;;;0.50;;
35518;SDS011;21627;48.216;16.482;2022-07-17T11:26:52;5.38;;;0.80;;
35518;SDS011;21627;48.216;16.482;2022-07-17T11:29:20;1.73;;;0.60;;
35518;SDS011;21627;48.216;16.482;2022-07-17T11:31:54;2.92;;;0.70;;
35518;SDS011;21627;48.216;16.482;2022-07-17T11:34:24;2.03;;;0.75;;
35518;SDS011;21627;48.216;16.482;2022-07-17T11:37:01;1.08;;;0.60;;
35518;SDS011;21627;48.216;16.482;2022-07-17T11:42:17;1.95;;;0.50;;
35518;SDS011;21627;48.216;16.482;2022-07-17T11:44:51;3.65;;;0.73;;
35518;SDS011;21627;48.216;16.482;2022-07-17T11:47:22;4.13;;;0.52;;
35518;SDS011;21627;48.216;16.482;2022-07-17T11:50:05;2.83;;;0.95;;
35518;SDS011;21627;48.216;16.482;2022-07-17T11:52:43;1.73;;;0.60;;
35518;SDS011;21627;48.216;16.482;2022-07-17T11:55:15;1.55;;;0.70;;
35518;SDS011;21627;48.216;16.482;2022-07-17T11:57:44;5.18;;;0.93;;
35518;SDS011;21627;48.216;16.482;2022-07-17T12:00:18;1.98;;;0.60;;
35518;SDS011;21627;48.216;16.482;2022-07-17T12:02:56;3.00;;;0.70;;
35518;SDS011;21627;48.216;16.482;2022-07-17T12:05:30;4.32;;;0.77;;
35518;SDS011;21627;48.216;16.482;2022-07-17T12:08:01;2.13;;;0.77;;
35518;SDS011;21627;48.216;16.482;2022-07-17T12:10:30;1.80;;;0.55;;
35518;SDS011;21627;48.216;16.482;2022-07-17T12:13:00;2.30;;;0.75;;
35518;SDS011;21627;48.216;16.482;2022-07-17T12:15:36;2.35;;;0.70;;
35518;SDS011;21627;48.216;16.482;2022-07-17T12:18:04;4.40;;;1.10;;
35518;SDS011;21627;48.216;16.482;2022-07-17T12:20:43;1.83;;;0.60;;
35518;SDS011;21627;48.216;16.482;2022-07-17T12:23:26;5.35;;;0.75;;
35518;SDS011;21627;48.216;16.482;2022-07-17T12:26:13;2.95;;;0.63;;
35518;SDS011;21627;48.216;16.482;2022-07-17T12:28:44;2.05;;;0.68;;
35518;SDS011;21627;48.216;16.482;2022-07-17T12:31:13;1.17;;;0.60;;
35518;SDS011;21627;48.216;16.482;2022-07-17T12:33:41;1.13;;;0.50;;
35518;SDS011;21627;48.216;16.482;2022-07-17T12:36:09;2.10;;;0.77;;
35518;SDS011;21627;48.216;16.482;2022-07-17T12:38:37;1.50;;;0.50;;
35518;SDS011;21627;48.216;16.482;2022-07-17T12:41:05;1.90;;;0.80;;
35518;SDS011;21627;48.216;16.482;2022-07-17T12:43:32;1.20;;;0.60;;
35518;SDS011;21627;48.216;16.482;2022-07-17T12:45:59;7.70;;;0.98;;
35518;SDS011;21627;48.216;16.482;2022-07-17T12:48:39;3.53;;;1.20;;
35518;SDS011;21627;48.216;16.482;2022-07-17T12:51:07;2.30;;;0.55;;
35518;SDS011;21627;48.216;16.482;2022-07-17T12:53:42;1.10;;;0.50;;
35518;SDS011;21627;48.216;16.482;2022-07-17T12:56:10;2.88;;;0.75;;
35518;SDS011;21627;48.216;16.482;2022-07-17T12:58:38;3.47;;;0.70;;
35518;SDS011;21627;48.216;16.482;2022-07-17T13:01:05;1.38;;;0.47;;
35518;SDS011;21627;48.216;16.482;2022-07-17T13:03:33;2.63;;;0.68;;
35518;SDS011;21627;48.216;16.482;2022-07-17T13:06:00;3.40;;;0.80;;
35518;SDS011;21627;48.216;16.482;2022-07-17T13:08:29;1.85;;;0.68;;
35518;SDS011;21627;48.216;16.482;2022-07-17T13:10:57;3.75;;;0.57;;
35518;SDS011;21627;48.216;16.482;2022-07-17T13:13:27;7.13;;;0.60;;
35518;SDS011;21627;48.216;16.482;2022-07-17T13:15:56;3.03;;;0.75;;
35518;SDS011;21627;48.216;16.482;2022-07-17T13:18:23;2.03;;;0.68;;
35518;SDS011;21627;48.216;16.482;2022-07-17T13:20:51;1.75;;;0.70;;
35518;SDS011;21627;48.216;16.482;2022-07-17T13:23:25;13.75;;;1.05;;
35518;SDS011;21627;48.216;16.482;2022-07-17T13:25:52;2.50;;;0.63;;
35518;SDS011;21627;48.216;16.482;2022-07-17T13:28:21;3.03;;;0.60;;
35518;SDS011;21627;48.216;16.482;2022-07-17T13:30:48;2.05;;;0.60;;
35518;SDS011;21627;48.216;16.482;2022-07-17T13:33:15;5.82;;;1.25;;
35518;SDS011;21627;48.216;16.482;2022-07-17T13:35:42;1.75;;;0.70;;
35518;SDS011;21627;48.216;16.482;2022-07-17T13:38:10;1.73;;;0.50;;
35518;SDS011;21627;48.216;16.482;2022-07-17T13:40:37;3.80;;;0.70;;
35518;SDS011;21627;48.216;16.482;2022-07-17T13:43:04;2.58;;;0.68;;
35518;SDS011;21627;48.216;16.482;2022-07-17T13:45:32;3.28;;;0.70;;
35518;SDS011;21627;48.216;16.482;2022-07-17T13:47:59;18.25;;;1.00;;
35518;SDS011;21627;48.216;16.482;2022-07-17T13:50:27;2.08;;;0.82;;
35518;SDS011;21627;48.216;16.482;2022-07-17T13:52:54;5.70;;;3.90;;
35518;SDS011;21627;48.216;16.482;2022-07-17T13:55:22;8.55;;;2.15;;
35518;SDS011;21627;48.216;16.482;2022-07-17T13:58:09;5.25;;;1.23;;
35518;SDS011;21627;48.216;16.482;2022-07-17T14:00:37;12.23;;;1.90;;
35518;SDS011;21627;48.216;16.482;2022-07-17T14:03:04;11.48;;;2.13;;
35518;SDS011;21627;48.216;16.482;2022-07-17T14:05:32;6.50;;;1.30;;
35518;SDS011;21627;48.216;16.482;2022-07-17T14:07:59;8.20;;;1.33;;
35518;SDS011;21627;48.216;16.482;2022-07-17T14:10:26;2.65;;;0.80;;
35518;SDS011;21627;48.216;16.482;2022-07-17T14:12:53;6.53;;;1.60;;
35518;SDS011;21627;48.216;16.482;2022-07-17T14:15:20;2.55;;;1.83;;
35518;SDS011;21627;48.216;16.482;2022-07-17T14:17:48;2.10;;;1.23;;
35518;SDS011;21627;48.216;16.482;2022-07-17T14:20:15;2.60;;;1.13;;
35518;SDS011;21627;48.216;16.482;2022-07-17T14:22:43;3.60;;;1.10;;
35518;SDS011;21627;48.216;16.482;2022-07-17T14:25:11;1.73;;;0.70;;
35518;SDS011;21627;48.216;16.482;2022-07-17T14:27:38;1.27;;;0.50;;
35518;SDS011;21627;48.216;16.482;2022-07-17T14:30:06;1.50;;;0.52;;
35518;SDS011;21627;48.216;16.482;2022-07-17T14:32:34;2.03;;;0.70;;
35518;SDS011;21627;48.216;16.482;2022-07-17T14:35:01;5.15;;;1.90;;
35518;SDS011;21627;48.216;16.482;2022-07-17T14:37:28;1.98;;;0.88;;
35518;SDS011;21627;48.216;16.482;2022-07-17T14:39:55;10.52;;;2.47;;
35518;SDS011;21627;48.216;16.482;2022-07-17T14:42:23;3.13;;;0.70;;
35518;SDS011;21627;48.216;16.482;2022-07-17T14:44:50;2.03;;;0.70;;
35518;SDS011;21627;48.216;16.482;2022-07-17T14:47:18;1.95;;;0.70;;
35518;SDS011;21627;48.216;16.482;2022-07-17T14:49:45;3.90;;;0.73;;
35518;SDS011;21627;48.216;16.482;2022-07-17T14:52:13;4.50;;;1.17;;
35518;SDS011;21627;48.216;16.482;2022-07-17T14:54:40;3.55;;;0.60;;
35518;SDS011;21627;48.216;16.482;2022-07-17T14:57:07;3.08;;;0.65;;
35518;SDS011;21627;48.216;16.482;2022-07-17T14:59:34;4.15;;;1.33;;
35518;SDS011;21627;48.216;16.482;2022-07-17T15:02:02;7.43;;;0.80;;
35518;SDS011;21627;48.216;16.482;2022-07-17T15:04:29;3.90;;;0.95;;